createdAt,value
2023-04-10T00:00:13.413Z,512.00
2023-04-10T00:01:13.388Z,516.00
2023-04-10T00:02:13.396Z,518.00
2023-04-10T00:03:13.696Z,520.00
2023-04-10T00:04:13.445Z,519.00
2023-04-10T00:05:13.287Z,519.00
2023-04-10T00:06:13.235Z,519.00
2023-04-10T00:07:13.186Z,520.00
2023-04-10T00:08:13.166Z,519.00
2023-04-10T00:09:13.132Z,517.00
2023-04-10T00:10:13.106Z,518.00
2023-04-10T00:11:13.104Z,519.00
2023-04-10T00:12:13.072Z,517.00
2023-04-10T00:13:13.066Z,515.00
2023-04-10T00:14:13.027Z,513.00
2023-04-10T00:15:13.043Z,511.00
2023-04-10T00:16:13.042Z,515.00
2023-04-10T00:17:12.950Z,519.00
2023-04-10T00:18:12.922Z,524.00
2023-04-10T00:19:12.907Z,524.00
2023-04-10T00:20:12.879Z,526.00
2023-04-10T00:21:12.851Z,522.00
2023-04-10T00:22:12.811Z,527.00
2023-04-10T00:23:12.799Z,530.00
2023-04-10T00:24:12.753Z,528.00
2023-04-10T00:25:12.735Z,528.00
2023-04-10T00:26:12.710Z,525.00
2023-04-10T00:27:12.684Z,525.00
2023-04-10T00:28:12.664Z,525.00
2023-04-10T00:29:12.678Z,524.00
2023-04-10T00:30:12.713Z,522.00
2023-04-10T00:31:12.736Z,527.00
2023-04-10T00:32:12.760Z,524.00
2023-04-10T00:33:12.744Z,525.00
2023-04-10T00:34:12.746Z,524.00
2023-04-10T00:35:12.760Z,526.00
2023-04-10T00:36:12.810Z,526.00
2023-04-10T00:37:12.763Z,528.00
2023-04-10T00:38:12.779Z,529.00
2023-04-10T00:39:12.773Z,526.00
2023-04-10T00:40:12.774Z,527.00
2023-04-10T00:41:12.770Z,527.00
2023-04-10T00:42:12.727Z,526.00
2023-04-10T00:43:12.734Z,523.00
2023-04-10T00:44:12.688Z,515.00
2023-04-10T00:45:12.715Z,513.00
2023-04-10T00:46:12.737Z,517.00
2023-04-10T00:47:12.669Z,518.00
2023-04-10T00:48:12.657Z,518.00
2023-04-10T00:49:12.642Z,518.00
2023-04-10T00:50:12.623Z,517.00
2023-04-10T00:51:12.625Z,515.00
2023-04-10T00:52:12.663Z,515.00
2023-04-10T00:53:12.711Z,511.00
2023-04-10T00:54:12.695Z,511.00
2023-04-10T00:55:12.714Z,512.00
2023-04-10T00:56:12.734Z,510.00
2023-04-10T00:57:12.756Z,508.00
2023-04-10T00:58:12.778Z,507.00
2023-04-10T00:59:12.801Z,506.00
2023-04-10T01:00:12.819Z,506.00
2023-04-10T01:01:12.887Z,510.00
2023-04-10T01:02:13.046Z,510.00
2023-04-10T01:03:13.185Z,511.00
2023-04-10T01:04:13.142Z,514.00
2023-04-10T01:05:12.906Z,513.00
2023-04-10T01:06:12.913Z,512.00
2023-04-10T01:07:12.915Z,512.00
2023-04-10T01:08:12.877Z,513.00
2023-04-10T01:09:12.864Z,513.00
2023-04-10T01:10:12.834Z,515.00
2023-04-10T01:11:12.851Z,517.00
2023-04-10T01:12:12.837Z,516.00
2023-04-10T01:13:12.822Z,512.00
2023-04-10T01:14:12.811Z,513.00
2023-04-10T01:15:12.792Z,510.00
2023-04-10T01:16:12.776Z,509.00
2023-04-10T01:17:12.818Z,510.00
2023-04-10T01:18:12.738Z,510.00
2023-04-10T01:19:12.707Z,510.00
2023-04-10T01:20:12.675Z,509.00
2023-04-10T01:21:12.663Z,511.00
2023-04-10T01:22:12.646Z,511.00
2023-04-10T01:23:12.623Z,508.00
2023-04-10T01:24:12.595Z,508.00
2023-04-10T01:25:12.577Z,513.00
2023-04-10T01:26:12.584Z,515.00
2023-04-10T01:27:12.533Z,514.00
2023-04-10T01:28:12.512Z,512.00
2023-04-10T01:29:12.494Z,512.00
2023-04-10T01:30:12.477Z,514.00
2023-04-10T01:31:12.461Z,514.00
2023-04-10T01:32:12.425Z,514.00
2023-04-10T01:33:12.454Z,512.00
2023-04-10T01:34:12.493Z,516.00
2023-04-10T01:35:12.452Z,516.00
2023-04-10T01:36:12.497Z,516.00
2023-04-10T01:37:12.515Z,517.00
2023-04-10T01:38:12.517Z,516.00
2023-04-10T01:39:12.508Z,516.00
2023-04-10T01:40:12.488Z,518.00
2023-04-10T01:41:12.462Z,515.00
2023-04-10T01:42:12.448Z,515.00
2023-04-10T01:43:12.449Z,516.00
2023-04-10T01:44:12.413Z,514.00
2023-04-10T01:45:12.388Z,511.00
2023-04-10T01:46:12.417Z,509.00
2023-04-10T01:47:12.346Z,511.00
2023-04-10T01:48:12.335Z,516.00
2023-04-10T01:49:12.353Z,519.00
2023-04-10T01:50:12.334Z,521.00
2023-04-10T01:51:12.319Z,522.00
2023-04-10T01:52:12.310Z,523.00
2023-04-10T01:53:12.302Z,520.00
2023-04-10T01:54:12.304Z,517.00
2023-04-10T01:55:12.283Z,517.00
2023-04-10T01:56:12.285Z,517.00
2023-04-10T01:57:12.268Z,517.00
2023-04-10T01:58:12.266Z,521.00
2023-04-10T01:59:12.243Z,516.00
2023-04-10T02:00:12.246Z,518.00
2023-04-10T02:01:19.346Z,518.00
2023-04-10T02:02:12.412Z,519.00
2023-04-10T02:03:12.405Z,522.00
2023-04-10T02:04:12.220Z,523.00
2023-04-10T02:05:12.122Z,523.00
2023-04-10T02:06:12.058Z,519.00
2023-04-10T02:07:12.039Z,517.00
2023-04-10T02:08:12.024Z,518.00
2023-04-10T02:09:12.016Z,519.00
2023-04-10T02:10:11.988Z,520.00
2023-04-10T02:11:11.991Z,521.00
2023-04-10T02:12:11.977Z,523.00
2023-04-10T02:13:11.920Z,521.00
2023-04-10T02:14:11.960Z,521.00
2023-04-10T02:15:11.885Z,523.00
2023-04-10T02:16:11.943Z,524.00
2023-04-10T02:17:11.850Z,526.00
2023-04-10T02:18:11.824Z,527.00
2023-04-10T02:19:11.818Z,527.00
2023-04-10T02:20:11.808Z,531.00
2023-04-10T02:21:11.887Z,530.00
2023-04-10T02:22:11.748Z,530.00
2023-04-10T02:23:11.722Z,533.00
2023-04-10T02:24:11.696Z,533.00
2023-04-10T02:25:11.670Z,534.00
2023-04-10T02:26:11.669Z,535.00
2023-04-10T02:27:11.633Z,535.00
2023-04-10T02:28:11.614Z,536.00
2023-04-10T02:29:11.593Z,537.00
2023-04-10T02:30:11.598Z,533.00
2023-04-10T02:31:11.656Z,535.00
2023-04-10T02:32:11.534Z,532.00
2023-04-10T02:33:11.500Z,530.00
2023-04-10T02:34:11.508Z,530.00
2023-04-10T02:35:11.458Z,530.00
2023-04-10T02:36:11.498Z,531.00
2023-04-10T02:37:11.441Z,529.00
2023-04-10T02:38:11.394Z,530.00
2023-04-10T02:39:11.370Z,531.00
2023-04-10T02:40:11.341Z,527.00
2023-04-10T02:41:11.349Z,524.00
2023-04-10T02:42:11.300Z,525.00
2023-04-10T02:43:11.268Z,525.00
2023-04-10T02:44:11.248Z,526.00
2023-04-10T02:45:11.256Z,524.00
2023-04-10T02:46:11.261Z,523.00
2023-04-10T02:47:11.231Z,523.00
2023-04-10T02:48:11.236Z,523.00
2023-04-10T02:49:11.201Z,524.00
2023-04-10T02:50:11.191Z,525.00
2023-04-10T02:51:11.176Z,526.00
2023-04-10T02:52:11.180Z,526.00
2023-04-10T02:53:11.215Z,526.00
2023-04-10T02:54:11.207Z,527.00
2023-04-10T02:55:11.207Z,527.00
2023-04-10T02:56:11.191Z,527.00
2023-04-10T02:57:11.201Z,530.00
2023-04-10T02:58:13.131Z,531.00
2023-04-10T02:59:11.145Z,531.00
2023-04-10T03:00:11.114Z,529.00
2023-04-10T03:01:11.090Z,528.00
2023-04-10T03:02:11.130Z,526.00
2023-04-10T03:03:11.076Z,526.00
2023-04-10T03:04:11.053Z,528.00
2023-04-10T03:05:10.978Z,526.00
2023-04-10T03:06:10.964Z,530.00
2023-04-10T03:07:10.926Z,529.00
2023-04-10T03:08:10.879Z,526.00
2023-04-10T03:09:10.873Z,527.00
2023-04-10T03:10:10.822Z,526.00
2023-04-10T03:11:10.822Z,525.00
2023-04-10T03:12:10.743Z,526.00
2023-04-10T03:13:10.716Z,527.00
2023-04-10T03:14:10.683Z,527.00
2023-04-10T03:15:10.660Z,528.00
2023-04-10T03:16:10.671Z,530.00
2023-04-10T03:17:10.606Z,529.00
2023-04-10T03:18:10.668Z,531.00
2023-04-10T03:19:10.555Z,532.00
2023-04-10T03:20:10.529Z,533.00
2023-04-10T03:21:10.498Z,535.00
2023-04-10T03:22:10.463Z,533.00
2023-04-10T03:23:10.436Z,532.00
2023-04-10T03:24:10.406Z,530.00
2023-04-10T03:25:10.408Z,527.00
2023-04-10T03:26:10.389Z,526.00
2023-04-10T03:27:10.359Z,525.00
2023-04-10T03:28:10.381Z,522.00
2023-04-10T03:29:10.360Z,522.00
2023-04-10T03:30:10.361Z,521.00
2023-04-10T03:31:10.387Z,521.00
2023-04-10T03:32:10.388Z,520.00
2023-04-10T03:33:10.426Z,522.00
2023-04-10T03:34:10.441Z,520.00
2023-04-10T03:35:10.480Z,517.00
2023-04-10T03:36:10.529Z,514.00
2023-04-10T03:37:10.549Z,518.00
2023-04-10T03:38:10.587Z,519.00
2023-04-10T03:39:10.622Z,520.00
2023-04-10T03:40:10.671Z,520.00
2023-04-10T03:41:10.867Z,521.00
2023-04-10T03:42:10.746Z,521.00
2023-04-10T03:43:10.768Z,523.00
2023-04-10T03:44:10.806Z,525.00
2023-04-10T03:45:10.817Z,526.00
2023-04-10T03:46:10.834Z,524.00
2023-04-10T03:47:10.899Z,525.00
2023-04-10T03:48:10.872Z,526.00
2023-04-10T03:49:10.868Z,525.00
2023-04-10T03:50:10.873Z,526.00
2023-04-10T03:51:10.891Z,527.00
2023-04-10T03:52:10.904Z,526.00
2023-04-10T03:53:10.929Z,525.00
2023-04-10T03:54:10.941Z,523.00
2023-04-10T03:55:10.980Z,510.00
2023-04-10T03:56:11.036Z,516.00
2023-04-10T03:57:11.070Z,517.00
2023-04-10T03:58:11.094Z,518.00
2023-04-10T03:59:11.133Z,520.00
2023-04-10T04:00:11.189Z,522.00
2023-04-10T04:01:11.221Z,523.00
2023-04-10T04:02:11.350Z,523.00
2023-04-10T04:03:11.557Z,524.00
2023-04-10T04:04:11.587Z,524.00
2023-04-10T04:05:11.439Z,524.00
2023-04-10T04:06:11.356Z,524.00
2023-04-10T04:07:11.372Z,528.00
2023-04-10T04:08:11.375Z,526.00
2023-04-10T04:09:11.372Z,529.00
2023-04-10T04:10:11.436Z,530.00
2023-04-10T04:11:11.386Z,532.00
2023-04-10T04:12:11.393Z,530.00
2023-04-10T04:13:11.421Z,527.00
2023-04-10T04:14:11.396Z,526.00
2023-04-10T04:15:11.499Z,528.00
2023-04-10T04:16:11.482Z,530.00
2023-04-10T04:17:11.451Z,528.00
2023-04-10T04:18:11.465Z,533.00
2023-04-10T04:19:11.493Z,535.00
2023-04-10T04:20:11.537Z,538.00
2023-04-10T04:21:11.616Z,539.00
2023-04-10T04:22:11.618Z,542.00
2023-04-10T04:23:11.663Z,541.00
2023-04-10T04:24:11.701Z,542.00
2023-04-10T04:25:12.093Z,544.00
2023-04-10T04:26:11.815Z,547.00
2023-04-10T04:27:11.868Z,548.00
2023-04-10T04:28:11.909Z,546.00
2023-04-10T04:29:11.984Z,545.00
2023-04-10T04:30:12.013Z,546.00
2023-04-10T04:31:12.058Z,546.00
2023-04-10T04:32:12.172Z,546.00
2023-04-10T04:33:12.149Z,545.00
2023-04-10T04:34:12.179Z,545.00
2023-04-10T04:35:12.218Z,545.00
2023-04-10T04:36:12.276Z,542.00
2023-04-10T04:37:12.269Z,542.00
2023-04-10T04:38:12.299Z,542.00
2023-04-10T04:39:12.325Z,543.00
2023-04-10T04:40:12.358Z,545.00
2023-04-10T04:41:12.425Z,546.00
2023-04-10T04:42:12.485Z,548.00
2023-04-10T04:43:12.555Z,548.00
2023-04-10T04:44:12.579Z,544.00
2023-04-10T04:45:12.657Z,541.00
2023-04-10T04:46:12.677Z,538.00
2023-04-10T04:47:12.720Z,536.00
2023-04-10T04:48:12.756Z,535.00
2023-04-10T04:49:12.788Z,535.00
2023-04-10T04:50:12.818Z,534.00
2023-04-10T04:51:12.824Z,534.00
2023-04-10T04:52:12.853Z,535.00
2023-04-10T04:53:12.863Z,535.00
2023-04-10T04:54:12.875Z,537.00
2023-04-10T04:55:12.922Z,536.00
2023-04-10T04:56:12.898Z,534.00
2023-04-10T04:57:12.905Z,533.00
2023-04-10T04:58:12.905Z,537.00
2023-04-10T04:59:12.906Z,537.00
2023-04-10T05:00:12.915Z,537.00
2023-04-10T05:01:13.005Z,537.00
2023-04-10T05:02:12.960Z,533.00
2023-04-10T05:03:13.088Z,534.00
2023-04-10T05:04:13.093Z,536.00
2023-04-10T05:05:12.919Z,535.00
2023-04-10T05:06:12.919Z,537.00
2023-04-10T05:07:12.929Z,536.00
2023-04-10T05:08:12.930Z,534.00
2023-04-10T05:09:12.952Z,537.00
2023-04-10T05:10:12.936Z,535.00
2023-04-10T05:11:12.938Z,533.00
2023-04-10T05:12:12.965Z,534.00
2023-04-10T05:13:12.984Z,534.00
2023-04-10T05:14:12.995Z,538.00
2023-04-10T05:15:12.992Z,542.00
2023-04-10T05:16:13.047Z,545.00
2023-04-10T05:17:13.064Z,544.00
2023-04-10T05:18:13.190Z,545.00
2023-04-10T05:19:13.121Z,546.00
2023-04-10T05:20:13.155Z,545.00
2023-04-10T05:21:13.203Z,545.00
2023-04-10T05:22:13.214Z,547.00
2023-04-10T05:23:13.220Z,547.00
2023-04-10T05:24:13.228Z,547.00
2023-04-10T05:25:13.232Z,546.00
2023-04-10T05:26:13.244Z,545.00
2023-04-10T05:27:13.260Z,546.00
2023-04-10T05:28:13.249Z,543.00
2023-04-10T05:29:13.242Z,543.00
2023-04-10T05:30:13.248Z,542.00
2023-04-10T05:31:13.271Z,543.00
2023-04-10T05:32:13.226Z,541.00
2023-04-10T05:33:13.223Z,539.00
2023-04-10T05:34:13.187Z,540.00
2023-04-10T05:35:13.164Z,537.00
2023-04-10T05:36:13.292Z,536.00
2023-04-10T05:37:13.183Z,529.00
2023-04-10T05:38:13.124Z,526.00
2023-04-10T05:39:13.099Z,525.00
2023-04-10T05:40:13.450Z,526.00
2023-04-10T05:41:13.078Z,527.00
2023-04-10T05:42:13.038Z,529.00
2023-04-10T05:43:13.035Z,528.00
2023-04-10T05:44:13.050Z,527.00
2023-04-10T05:45:12.991Z,525.00
2023-04-10T05:46:13.033Z,522.00
2023-04-10T05:47:12.972Z,524.00
2023-04-10T05:48:12.938Z,524.00
2023-04-10T05:49:12.931Z,523.00
2023-04-10T05:50:12.915Z,523.00
2023-04-10T05:51:12.971Z,522.00
2023-04-10T05:52:12.989Z,523.00
2023-04-10T05:53:13.026Z,525.00
2023-04-10T05:54:13.045Z,525.00
2023-04-10T05:55:13.080Z,526.00
2023-04-10T05:56:13.114Z,527.00
2023-04-10T05:57:13.101Z,527.00
2023-04-10T05:58:13.094Z,531.00
2023-04-10T05:59:13.085Z,531.00
2023-04-10T06:00:13.097Z,533.00
2023-04-10T06:01:13.076Z,534.00
2023-04-10T06:02:13.053Z,537.00
2023-04-10T06:03:13.092Z,536.00
2023-04-10T06:04:13.161Z,537.00
2023-04-10T06:05:13.078Z,539.00
2023-04-10T06:06:13.069Z,541.00
2023-04-10T06:07:13.083Z,541.00
2023-04-10T06:08:13.096Z,542.00
2023-04-10T06:09:13.119Z,544.00
2023-04-10T06:10:13.141Z,541.00
2023-04-10T06:11:13.151Z,539.00
2023-04-10T06:12:13.156Z,539.00
2023-04-10T06:13:13.154Z,545.00
2023-04-10T06:14:13.135Z,532.00
2023-04-10T06:15:13.122Z,528.00
2023-04-10T06:16:13.166Z,524.00
2023-04-10T06:17:13.032Z,529.00
2023-04-10T06:18:12.975Z,516.00
2023-04-10T06:19:12.929Z,524.00
2023-04-10T06:20:12.865Z,530.00
2023-04-10T06:21:12.852Z,529.00
2023-04-10T06:22:12.839Z,527.00
2023-04-10T06:23:12.791Z,526.00
2023-04-10T06:24:12.988Z,524.00
2023-04-10T06:25:12.795Z,517.00
2023-04-10T06:26:12.756Z,523.00
2023-04-10T06:27:12.732Z,524.00
2023-04-10T06:28:12.704Z,526.00
2023-04-10T06:29:12.663Z,520.00
2023-04-10T06:30:12.621Z,516.00
2023-04-10T06:31:12.645Z,520.00
2023-04-10T06:32:12.539Z,517.00
2023-04-10T06:33:12.479Z,527.00
2023-04-10T06:34:12.443Z,523.00
2023-04-10T06:35:12.429Z,527.00
2023-04-10T06:36:12.461Z,520.00
2023-04-10T06:37:12.389Z,523.00
2023-04-10T06:38:12.326Z,522.00
2023-04-10T06:39:12.295Z,521.00
2023-04-10T06:40:12.282Z,528.00
2023-04-10T06:41:12.308Z,529.00
2023-04-10T06:42:12.223Z,526.00
2023-04-10T06:43:12.175Z,525.00
2023-04-10T06:44:12.141Z,532.00
2023-04-10T06:45:12.294Z,530.00
2023-04-10T06:46:12.115Z,526.00
2023-04-10T06:47:12.225Z,528.00
2023-04-10T06:48:11.978Z,528.00
2023-04-10T06:49:11.930Z,530.00
2023-04-10T06:50:11.916Z,531.00
2023-04-10T06:51:11.895Z,531.00
2023-04-10T06:52:11.844Z,530.00
2023-04-10T06:53:11.874Z,532.00
2023-04-10T06:54:11.865Z,534.00
2023-04-10T06:55:11.917Z,522.00
2023-04-10T06:56:11.929Z,525.00
2023-04-10T06:57:11.851Z,526.00
2023-04-10T06:58:11.820Z,529.00
2023-04-10T06:59:11.787Z,515.00
2023-04-10T07:00:11.779Z,524.00
2023-04-10T07:01:11.796Z,526.00
2023-04-10T07:02:11.799Z,497.00
2023-04-10T07:03:11.821Z,528.00
2023-04-10T07:04:11.927Z,527.00
2023-04-10T07:05:11.791Z,528.00
2023-04-10T07:06:11.810Z,526.00
2023-04-10T07:07:11.822Z,525.00
2023-04-10T07:08:11.816Z,525.00
2023-04-10T07:09:11.827Z,522.00
2023-04-10T07:10:11.791Z,523.00
2023-04-10T07:11:11.756Z,530.00
2023-04-10T07:12:11.725Z,519.00
2023-04-10T07:13:11.696Z,509.00
2023-04-10T07:14:11.657Z,524.00
2023-04-10T07:15:11.610Z,525.00
2023-04-10T07:16:11.607Z,530.00
2023-04-10T07:17:11.530Z,527.00
2023-04-10T07:18:11.506Z,528.00
2023-04-10T07:19:11.414Z,524.00
2023-04-10T07:20:11.356Z,525.00
2023-04-10T07:21:11.312Z,522.00
2023-04-10T07:22:11.239Z,520.00
2023-04-10T07:23:11.173Z,521.00
2023-04-10T07:24:11.123Z,520.00
2023-04-10T07:25:11.093Z,521.00
2023-04-10T07:26:10.988Z,517.00
2023-04-10T07:27:10.936Z,523.00
2023-04-10T07:28:10.873Z,520.00
2023-04-10T07:29:10.797Z,519.00
2023-04-10T07:30:12.957Z,520.00
2023-04-10T07:31:10.734Z,519.00
2023-04-10T07:32:10.766Z,520.00
2023-04-10T07:33:10.673Z,522.00
2023-04-10T07:34:10.446Z,513.00
2023-04-10T07:35:10.377Z,520.00
2023-04-10T07:36:10.344Z,519.00
2023-04-10T07:37:10.219Z,520.00
2023-04-10T07:38:10.135Z,510.00
2023-04-10T07:39:10.055Z,518.00
2023-04-10T07:40:09.959Z,521.00
2023-04-10T07:41:09.916Z,520.00
2023-04-10T07:42:09.818Z,520.00
2023-04-10T07:43:09.735Z,521.00
2023-04-10T07:44:09.653Z,520.00
2023-04-10T07:45:09.571Z,520.00
2023-04-10T07:46:09.520Z,518.00
2023-04-10T07:47:09.437Z,516.00
2023-04-10T07:48:09.333Z,514.00
2023-04-10T07:49:09.272Z,509.00
2023-04-10T07:50:09.221Z,509.00
2023-04-10T07:51:09.140Z,509.00
2023-04-10T07:52:09.068Z,511.00
2023-04-10T07:53:08.952Z,512.00
2023-04-10T07:54:08.905Z,510.00
2023-04-10T07:55:08.795Z,513.00
2023-04-10T07:56:08.709Z,511.00
2023-04-10T07:57:08.676Z,515.00
2023-04-10T07:58:08.545Z,514.00
2023-04-10T07:59:08.459Z,513.00
2023-04-10T08:00:08.367Z,511.00
2023-04-10T08:01:08.296Z,509.00
2023-04-10T08:02:08.292Z,507.00
2023-04-10T08:03:08.322Z,507.00
2023-04-10T08:04:08.149Z,508.00
2023-04-10T08:05:07.977Z,507.00
2023-04-10T08:06:07.932Z,509.00
2023-04-10T08:07:07.909Z,511.00
2023-04-10T08:08:07.889Z,508.00
2023-04-10T08:09:07.873Z,510.00
2023-04-10T08:10:07.842Z,508.00
2023-04-10T08:11:07.818Z,506.00
2023-04-10T08:12:07.788Z,506.00
2023-04-10T08:13:07.780Z,508.00
2023-04-10T08:14:07.726Z,491.00
2023-04-10T08:15:07.673Z,496.00
2023-04-10T08:16:07.638Z,498.00
2023-04-10T08:17:07.647Z,500.00
2023-04-10T08:18:07.597Z,502.00
2023-04-10T08:19:07.500Z,502.00
2023-04-10T08:20:07.419Z,504.00
2023-04-10T08:21:07.357Z,504.00
2023-04-10T08:22:07.292Z,502.00
2023-04-10T08:24:07.164Z,508.00
2023-04-10T08:25:07.068Z,509.00
2023-04-10T08:26:06.969Z,507.00
2023-04-10T08:27:06.895Z,507.00
2023-04-10T08:28:06.822Z,510.00
2023-04-10T08:29:06.722Z,508.00
2023-04-10T08:30:06.616Z,482.00
2023-04-10T08:31:06.624Z,508.00
2023-04-10T08:32:06.443Z,505.00
2023-04-10T08:33:06.369Z,509.00
2023-04-10T08:34:06.287Z,508.00
2023-04-10T08:35:06.179Z,510.00
2023-04-10T08:36:06.117Z,511.00
2023-04-10T08:37:06.015Z,510.00
2023-04-10T08:38:13.276Z,507.00
2023-04-10T08:39:05.863Z,504.00
2023-04-10T08:40:05.753Z,505.00
2023-04-10T08:41:05.668Z,507.00
2023-04-10T08:42:05.575Z,505.00
2023-04-10T08:43:05.490Z,503.00
2023-04-10T08:44:05.388Z,501.00
2023-04-10T08:45:05.314Z,501.00
2023-04-10T08:46:05.215Z,500.00
2023-04-10T08:47:05.106Z,498.00
2023-04-10T08:48:05.010Z,495.00
2023-04-10T08:49:04.944Z,498.00
2023-04-10T08:50:04.811Z,498.00
2023-04-10T08:51:04.946Z,497.00
2023-04-10T08:52:04.602Z,501.00
2023-04-10T08:53:04.502Z,502.00
2023-04-10T08:54:04.398Z,503.00
2023-04-10T08:55:04.289Z,505.00
2023-04-10T08:56:04.187Z,505.00
2023-04-10T08:57:04.093Z,509.00
2023-04-10T08:58:04.004Z,507.00
2023-04-10T08:59:03.909Z,510.00
2023-04-10T09:00:16.033Z,510.00
2023-04-10T09:01:03.770Z,509.00
2023-04-10T09:02:03.708Z,510.00
2023-04-10T09:03:03.626Z,507.00
2023-04-10T09:04:03.556Z,503.00
2023-04-10T09:05:03.273Z,503.00
2023-04-10T09:06:03.156Z,492.00
2023-04-10T09:07:03.048Z,500.00
2023-04-10T09:08:02.929Z,499.00
2023-04-10T09:09:03.120Z,496.00
2023-04-10T09:10:02.724Z,496.00
2023-04-10T09:11:02.649Z,493.00
2023-04-10T09:12:02.522Z,491.00
2023-04-10T09:13:02.457Z,491.00
2023-04-10T09:14:02.318Z,491.00
2023-04-10T09:15:02.204Z,491.00
2023-04-10T09:16:02.114Z,490.00
2023-04-10T09:17:02.060Z,489.00
2023-04-10T09:18:01.958Z,492.00
2023-04-10T09:19:01.750Z,487.00
2023-04-10T09:20:01.629Z,490.00
2023-04-10T09:21:01.496Z,494.00
2023-04-10T09:22:01.410Z,495.00
2023-04-10T09:23:01.286Z,494.00
2023-04-10T09:24:01.178Z,493.00
2023-04-10T09:25:01.043Z,491.00
2023-04-10T09:26:00.937Z,489.00
2023-04-10T09:27:00.857Z,491.00
2023-04-10T09:28:01.048Z,486.00
2023-04-10T09:29:00.624Z,489.00
2023-04-10T09:30:00.571Z,490.00
2023-04-10T09:31:00.481Z,493.00
2023-04-10T09:32:00.320Z,503.00
2023-04-10T09:33:01.938Z,498.00
2023-04-10T09:34:00.120Z,498.00
2023-04-10T09:34:59.958Z,501.00
2023-04-10T09:35:59.926Z,493.00
2023-04-10T09:36:59.712Z,499.00
2023-04-10T09:37:59.603Z,501.00
2023-04-10T09:38:59.451Z,504.00
2023-04-10T09:39:59.327Z,504.00
2023-04-10T09:40:59.196Z,494.00
2023-04-10T09:41:59.060Z,504.00
2023-04-10T09:42:58.942Z,499.00
2023-04-10T09:43:58.818Z,503.00
2023-04-10T09:44:58.687Z,499.00
2023-04-10T09:45:58.575Z,498.00
2023-04-10T09:46:58.484Z,498.00
2023-04-10T09:47:58.372Z,497.00
2023-04-10T09:48:58.181Z,496.00
2023-04-10T09:49:58.019Z,494.00
2023-04-10T09:50:57.902Z,491.00
2023-04-10T09:51:57.770Z,498.00
2023-04-10T09:52:57.628Z,467.00
2023-04-10T09:53:57.489Z,486.00
2023-04-10T09:54:57.362Z,488.00
2023-04-10T09:55:57.238Z,492.00
2023-04-10T09:56:57.098Z,489.00
2023-04-10T09:57:56.958Z,490.00
2023-04-10T09:58:56.872Z,490.00
2023-04-10T09:59:56.689Z,489.00
2023-04-10T10:00:56.557Z,489.00
2023-04-10T10:01:56.526Z,486.00
2023-04-10T10:02:56.552Z,482.00
2023-04-10T10:03:56.326Z,485.00
2023-04-10T10:04:56.188Z,487.00
2023-04-10T10:05:56.034Z,487.00
2023-04-10T10:06:55.945Z,487.00
2023-04-10T10:07:55.854Z,487.00
2023-04-10T10:08:56.102Z,493.00
2023-04-10T10:09:55.666Z,491.00
2023-04-10T10:10:55.521Z,492.00
2023-04-10T10:11:55.423Z,491.00
2023-04-10T10:12:55.349Z,484.00
2023-04-10T10:13:55.291Z,491.00
2023-04-10T10:14:55.221Z,493.00
2023-04-10T10:15:55.148Z,493.00
2023-04-10T10:16:55.039Z,479.00
2023-04-10T10:17:54.915Z,484.00
2023-04-10T10:18:55.043Z,487.00
2023-04-10T10:19:54.725Z,488.00
2023-04-10T10:20:54.633Z,484.00
2023-04-10T10:21:54.495Z,499.00
2023-04-10T10:22:54.365Z,495.00
2023-04-10T10:23:54.274Z,490.00
2023-04-10T10:24:54.191Z,491.00
2023-04-10T10:25:54.052Z,488.00
2023-04-10T10:26:53.928Z,487.00
2023-04-10T10:27:53.841Z,486.00
2023-04-10T10:28:54.025Z,489.00
2023-04-10T10:29:53.645Z,490.00
2023-04-10T10:30:53.529Z,489.00
2023-04-10T10:31:53.495Z,489.00
2023-04-10T10:32:53.381Z,487.00
2023-04-10T10:33:53.270Z,486.00
2023-04-10T10:34:53.107Z,487.00
2023-04-10T10:35:52.988Z,487.00
2023-04-10T10:36:52.966Z,490.00
2023-04-10T10:37:52.810Z,489.00
2023-04-10T10:38:52.956Z,484.00
2023-04-10T10:39:52.599Z,489.00
2023-04-10T10:40:52.533Z,491.00
2023-04-10T10:41:52.467Z,488.00
2023-04-10T10:42:52.376Z,487.00
2023-04-10T10:43:52.296Z,485.00
2023-04-10T10:44:52.228Z,476.00
2023-04-10T10:45:52.251Z,471.00
2023-04-10T10:46:52.107Z,475.00
2023-04-10T10:47:52.103Z,474.00
2023-04-10T10:48:52.232Z,474.00
2023-04-10T10:49:51.903Z,475.00
2023-04-10T10:50:51.784Z,481.00
2023-04-10T10:51:51.711Z,469.00
2023-04-10T10:52:51.619Z,483.00
2023-04-10T10:53:51.508Z,476.00
2023-04-10T10:54:59.244Z,480.00
2023-04-10T10:55:51.246Z,486.00
2023-04-10T10:56:51.094Z,487.00
2023-04-10T10:57:50.961Z,479.00
2023-04-10T10:58:50.831Z,483.00
2023-04-10T10:59:50.685Z,487.00
2023-04-10T11:00:50.613Z,483.00
2023-04-10T11:01:50.587Z,482.00
2023-04-10T11:02:50.387Z,482.00
2023-04-10T11:03:50.287Z,483.00
2023-04-10T11:04:50.061Z,486.00
2023-04-10T11:05:49.952Z,486.00
2023-04-10T11:06:49.849Z,486.00
2023-04-10T11:07:49.743Z,483.00
2023-04-10T11:08:49.698Z,482.00
2023-04-10T11:09:49.532Z,484.00
2023-04-10T11:10:49.433Z,488.00
2023-04-10T11:11:49.341Z,483.00
2023-04-10T11:12:49.242Z,490.00
2023-04-10T11:13:49.152Z,488.00
2023-04-10T11:14:49.046Z,486.00
2023-04-10T11:15:48.934Z,483.00
2023-04-10T11:16:48.933Z,485.00
2023-04-10T11:17:48.790Z,484.00
2023-04-10T11:18:55.885Z,483.00
2023-04-10T11:19:48.512Z,477.00
2023-04-10T11:20:48.411Z,484.00
2023-04-10T11:21:48.304Z,483.00
2023-04-10T11:22:48.193Z,482.00
2023-04-10T11:23:48.116Z,486.00
2023-04-10T11:24:47.974Z,484.00
2023-04-10T11:25:47.820Z,485.00
2023-04-10T11:26:47.711Z,487.00
2023-04-10T11:27:47.564Z,482.00
2023-04-10T11:28:47.445Z,485.00
2023-04-10T11:29:47.320Z,475.00
2023-04-10T11:30:47.199Z,482.00
2023-04-10T11:31:47.097Z,489.00
2023-04-10T11:32:46.960Z,485.00
2023-04-10T11:33:46.829Z,483.00
2023-04-10T11:34:46.734Z,491.00
2023-04-10T11:35:46.665Z,489.00
2023-04-10T11:36:46.561Z,486.00
2023-04-10T11:37:46.454Z,487.00
2023-04-10T11:38:46.340Z,488.00
2023-04-10T11:39:46.235Z,490.00
2023-04-10T11:40:46.180Z,486.00
2023-04-10T11:41:46.064Z,490.00
2023-04-10T11:42:45.974Z,491.00
2023-04-10T11:43:45.897Z,486.00
2023-04-10T11:44:47.764Z,488.00
2023-04-10T11:45:45.800Z,485.00
2023-04-10T11:46:45.601Z,489.00
2023-04-10T11:47:45.523Z,492.00
2023-04-10T11:48:45.396Z,490.00
2023-04-10T11:49:45.298Z,488.00
2023-04-10T11:50:45.163Z,486.00
2023-04-10T11:51:45.058Z,484.00
2023-04-10T11:52:44.974Z,488.00
2023-04-10T11:53:44.897Z,487.00
2023-04-10T11:54:44.756Z,485.00
2023-04-10T11:55:44.635Z,485.00
2023-04-10T11:56:44.605Z,483.00
2023-04-10T11:57:44.390Z,482.00
2023-04-10T11:58:44.255Z,483.00
2023-04-10T11:59:44.131Z,483.00
2023-04-10T12:00:43.993Z,485.00
2023-04-10T12:01:43.925Z,486.00
2023-04-10T12:02:43.764Z,485.00
2023-04-10T12:03:43.823Z,487.00
2023-04-10T12:04:43.536Z,485.00
2023-04-10T12:05:43.289Z,485.00
2023-04-10T12:06:43.171Z,482.00
2023-04-10T12:07:43.016Z,482.00
2023-04-10T12:08:42.871Z,483.00
2023-04-10T12:09:42.733Z,482.00
2023-04-10T12:10:42.600Z,481.00
2023-04-10T12:11:42.439Z,481.00
2023-04-10T12:12:42.325Z,483.00
2023-04-10T12:13:42.157Z,478.00
2023-04-10T12:14:42.054Z,482.00
2023-04-10T12:15:41.978Z,486.00
2023-04-10T12:16:41.792Z,479.00
2023-04-10T12:17:41.694Z,478.00
2023-04-10T12:18:41.548Z,480.00
2023-04-10T12:19:41.419Z,482.00
2023-04-10T12:20:41.283Z,481.00
2023-04-10T12:21:41.160Z,482.00
2023-04-10T12:22:40.998Z,480.00
2023-04-10T12:23:40.859Z,470.00
2023-04-10T12:24:40.721Z,479.00
2023-04-10T12:25:40.579Z,477.00
2023-04-10T12:26:40.449Z,478.00
2023-04-10T12:27:40.356Z,461.00
2023-04-10T12:28:40.294Z,473.00